createdAt,value
2022-11-26T00:00:32.812Z,6.71
2022-11-26T00:01:36.879Z,6.71
2022-11-26T00:02:40.729Z,6.71
2022-11-26T00:03:45.325Z,6.72
2022-11-26T00:04:50.302Z,6.72
2022-11-26T00:05:56.849Z,6.72
2022-11-26T00:07:00.529Z,6.72
2022-11-26T00:08:06.044Z,6.73
2022-11-26T00:09:25.053Z,6.70
2022-11-26T00:10:35.902Z,6.70
2022-11-26T00:11:40.179Z,6.71
2022-11-26T00:12:43.751Z,6.70
2022-11-26T00:13:47.249Z,6.72
2022-11-26T00:14:51.080Z,6.71
2022-11-26T00:15:56.518Z,6.74
2022-11-26T00:17:00.052Z,6.71
2022-11-26T00:18:03.727Z,6.73
2022-11-26T00:19:11.646Z,6.74
2022-11-26T00:20:16.397Z,6.75
2022-11-26T00:21:26.681Z,6.74
2022-11-26T00:22:41.325Z,6.74
2022-11-26T00:23:45.274Z,6.74
2022-11-26T00:24:50.581Z,6.74
2022-11-26T00:26:03.859Z,6.73
2022-11-26T00:27:13.035Z,6.73
2022-11-26T00:28:34.623Z,6.71
2022-11-26T00:29:38.372Z,6.69
2022-11-26T00:30:42.214Z,6.71
2022-11-26T00:31:46.113Z,6.71
2022-11-26T00:32:50.074Z,6.70
2022-11-26T00:33:53.941Z,6.70
2022-11-26T00:34:57.700Z,6.70
2022-11-26T00:36:19.618Z,6.69
2022-11-26T00:37:31.355Z,6.70
2022-11-26T00:38:35.866Z,6.71
2022-11-26T00:39:39.334Z,6.68
2022-11-26T00:40:43.165Z,6.70
2022-11-26T00:41:51.365Z,6.69
2022-11-26T00:43:01.252Z,6.69
2022-11-26T00:44:32.645Z,6.70
2022-11-26T00:45:36.455Z,6.69
2022-11-26T00:46:40.378Z,6.68
2022-11-26T00:47:44.407Z,6.68
2022-11-26T00:48:48.664Z,6.68
2022-11-26T00:49:52.306Z,6.67
2022-11-26T00:50:56.088Z,6.68
2022-11-26T00:51:59.758Z,6.70
2022-11-26T00:53:08.867Z,6.70
2022-11-26T00:54:24.818Z,6.69
2022-11-26T00:55:56.341Z,6.68
2022-11-26T00:57:01.055Z,6.66
2022-11-26T00:58:15.521Z,6.70
2022-11-26T00:59:24.067Z,6.64
2022-11-26T01:00:33.952Z,6.67
2022-11-26T01:01:39.136Z,6.67
2022-11-26T01:02:43.524Z,6.69
2022-11-26T01:03:49.116Z,6.67
2022-11-26T01:04:52.981Z,6.68
2022-11-26T01:06:00.689Z,6.68
2022-11-26T01:07:04.566Z,6.67
2022-11-26T01:08:25.017Z,6.68
2022-11-26T01:09:28.629Z,6.65
2022-11-26T01:10:32.760Z,6.67
2022-11-26T01:11:36.913Z,6.69
2022-11-26T01:12:40.352Z,6.68
2022-11-26T01:13:46.857Z,6.67
2022-11-26T01:14:50.745Z,6.68
2022-11-26T01:16:01.837Z,6.68
2022-11-26T01:17:11.140Z,6.66
2022-11-26T01:18:19.708Z,6.67
2022-11-26T01:19:23.461Z,6.68
2022-11-26T01:20:31.852Z,6.69
2022-11-26T01:21:35.500Z,6.69
2022-11-26T01:22:39.194Z,6.70
2022-11-26T01:23:43.330Z,6.67
2022-11-26T01:24:47.400Z,6.67
2022-11-26T01:25:51.353Z,6.69
2022-11-26T01:26:55.083Z,6.67
2022-11-26T01:27:58.459Z,6.64
2022-11-26T01:29:01.995Z,6.66
2022-11-26T01:30:30.953Z,6.63
2022-11-26T01:31:34.634Z,6.64
2022-11-26T01:32:38.126Z,6.62
2022-11-26T01:33:41.733Z,6.60
2022-11-26T01:34:45.563Z,6.60
2022-11-26T01:35:49.265Z,6.61
2022-11-26T01:36:52.978Z,6.63
2022-11-26T01:37:56.909Z,6.62
2022-11-26T01:39:10.928Z,6.60
2022-11-26T01:40:26.709Z,6.60
2022-11-26T01:42:08.513Z,6.57
2022-11-26T01:43:41.175Z,6.55
2022-11-26T01:44:44.971Z,6.54
2022-11-26T01:45:48.666Z,6.56
2022-11-26T01:46:53.793Z,6.52
2022-11-26T01:47:57.480Z,6.52
2022-11-26T01:49:34.290Z,6.56
2022-11-26T01:50:54.085Z,6.53
2022-11-26T01:52:18.610Z,6.55
2022-11-26T01:53:43.174Z,6.57
2022-11-26T01:54:49.168Z,6.53
2022-11-26T01:56:00.183Z,6.55
2022-11-26T01:57:29.853Z,6.57
2022-11-26T01:58:45.998Z,6.56
2022-11-26T01:59:57.041Z,6.57
2022-11-26T02:01:01.132Z,6.55
2022-11-26T02:02:11.241Z,6.57
2022-11-26T02:03:15.337Z,6.59
2022-11-26T02:04:33.541Z,6.55
2022-11-26T02:06:08.705Z,6.58
2022-11-26T02:07:12.776Z,6.51
2022-11-26T02:08:16.512Z,6.50
2022-11-26T02:09:20.440Z,6.48
2022-11-26T02:10:24.954Z,6.51
2022-11-26T02:11:28.653Z,6.53
2022-11-26T02:12:32.821Z,6.55
2022-11-26T02:13:36.514Z,6.57
2022-11-26T02:14:44.153Z,6.59
2022-11-26T02:16:29.551Z,6.58
2022-11-26T02:17:49.174Z,6.56
2022-11-26T02:19:40.844Z,6.54
2022-11-26T02:21:01.791Z,6.55
2022-11-26T02:22:28.276Z,6.58
2022-11-26T02:24:29.007Z,6.56
2022-11-26T02:26:13.012Z,6.55
2022-11-26T02:28:12.235Z,6.50
2022-11-26T02:29:25.458Z,6.51
2022-11-26T02:30:38.983Z,6.50
2022-11-26T02:32:03.960Z,6.51
2022-11-26T02:33:35.439Z,6.51
2022-11-26T02:34:54.952Z,6.39
2022-11-26T02:36:25.297Z,6.44
2022-11-26T02:37:37.208Z,6.41
2022-11-26T02:38:41.719Z,6.43
2022-11-26T02:39:46.961Z,6.46
2022-11-26T02:40:52.477Z,6.48
2022-11-26T02:42:04.262Z,6.47
2022-11-26T02:43:10.339Z,6.44
2022-11-26T02:44:19.011Z,6.47
2022-11-26T02:45:42.726Z,6.45
2022-11-26T02:46:51.788Z,6.45
2022-11-26T02:48:02.996Z,6.46
2022-11-26T02:49:17.887Z,6.45
2022-11-26T02:50:57.253Z,6.41
2022-11-26T02:52:04.945Z,6.38
2022-11-26T02:53:16.527Z,6.42
2022-11-26T02:54:24.530Z,6.44
2022-11-26T02:55:41.147Z,6.45
2022-11-26T02:56:45.164Z,6.48
2022-11-26T02:57:52.246Z,6.49
2022-11-26T02:58:57.945Z,6.49
2022-11-26T03:00:01.761Z,6.50
2022-11-26T03:01:29.639Z,6.49
2022-11-26T03:02:50.206Z,6.49
2022-11-26T03:03:58.606Z,6.46
2022-11-26T03:05:04.043Z,6.48
2022-11-26T03:06:15.655Z,6.50
2022-11-26T03:07:20.118Z,6.48
2022-11-26T03:08:26.583Z,6.47
2022-11-26T03:10:00.734Z,6.46
2022-11-26T03:11:07.557Z,6.49
2022-11-26T03:12:13.155Z,6.48
2022-11-26T03:13:17.802Z,6.49
2022-11-26T03:14:21.432Z,6.46
2022-11-26T03:15:25.389Z,6.45
2022-11-26T03:16:30.323Z,6.46
2022-11-26T03:17:34.296Z,6.45
2022-11-26T03:18:38.048Z,6.45
2022-11-26T03:19:41.946Z,6.47
2022-11-26T03:20:45.616Z,6.43
2022-11-26T03:21:49.308Z,6.48
2022-11-26T03:22:52.917Z,6.47
2022-11-26T03:23:56.989Z,6.40
2022-11-26T03:25:00.617Z,6.43
2022-11-26T03:26:05.058Z,6.46
2022-11-26T03:27:11.400Z,6.45
2022-11-26T03:28:15.336Z,6.44
2022-11-26T03:29:18.938Z,6.48
2022-11-26T03:30:22.807Z,6.50
2022-11-26T03:31:26.330Z,6.52
2022-11-26T03:32:30.190Z,6.52
2022-11-26T03:33:34.118Z,6.54
2022-11-26T03:34:37.889Z,6.55
2022-11-26T03:35:41.809Z,6.56
2022-11-26T03:36:45.602Z,6.57
2022-11-26T03:37:49.295Z,6.58
2022-11-26T03:38:52.932Z,6.50
2022-11-26T03:39:56.476Z,6.49
2022-11-26T03:41:04.264Z,6.50
2022-11-26T03:42:13.594Z,6.47
2022-11-26T03:43:17.639Z,6.44
2022-11-26T03:44:22.051Z,6.46
2022-11-26T03:45:25.643Z,6.48
2022-11-26T03:46:29.305Z,6.43
2022-11-26T03:47:32.832Z,6.41
2022-11-26T03:48:36.772Z,6.42
2022-11-26T03:49:40.426Z,6.44
2022-11-26T03:50:44.362Z,6.44
2022-11-26T03:51:47.955Z,6.43
2022-11-26T03:52:51.834Z,6.45
2022-11-26T03:53:55.791Z,6.49
2022-11-26T03:54:59.961Z,6.49
2022-11-26T03:56:03.669Z,6.50
2022-11-26T03:57:12.771Z,6.48
2022-11-26T03:58:16.831Z,6.49
2022-11-26T03:59:20.427Z,6.52
2022-11-26T04:00:24.890Z,6.51
2022-11-26T04:01:28.823Z,6.51
2022-11-26T04:02:36.111Z,6.53
2022-11-26T04:03:43.171Z,6.53
2022-11-26T04:04:46.922Z,6.52
2022-11-26T04:05:50.515Z,6.51
2022-11-26T04:06:54.003Z,6.52
2022-11-26T04:07:58.112Z,6.48
2022-11-26T04:09:01.646Z,6.51
2022-11-26T04:10:10.198Z,6.53
2022-11-26T04:11:14.746Z,6.47
2022-11-26T04:12:19.276Z,6.51
2022-11-26T04:13:23.281Z,6.48
2022-11-26T04:14:26.760Z,6.48
2022-11-26T04:15:30.255Z,6.51
2022-11-26T04:16:33.719Z,6.49
2022-11-26T04:17:37.080Z,6.51
2022-11-26T04:18:41.405Z,6.52
2022-11-26T04:19:44.817Z,6.53
2022-11-26T04:20:52.735Z,6.50
2022-11-26T04:21:57.170Z,6.48
2022-11-26T04:23:00.587Z,6.51
2022-11-26T04:24:04.611Z,6.49
2022-11-26T04:25:12.313Z,6.50
2022-11-26T04:26:16.050Z,6.52
2022-11-26T04:27:19.783Z,6.48
2022-11-26T04:28:24.522Z,6.50
2022-11-26T04:29:28.817Z,6.50
2022-11-26T04:30:32.787Z,6.52
2022-11-26T04:31:36.275Z,6.47
2022-11-26T04:32:40.348Z,6.48
2022-11-26T04:33:44.395Z,6.46
2022-11-26T04:34:47.942Z,6.42
2022-11-26T04:35:51.916Z,6.43
2022-11-26T04:36:55.598Z,6.42
2022-11-26T04:37:59.254Z,6.39
2022-11-26T04:39:03.025Z,6.40
2022-11-26T04:40:12.398Z,6.38
2022-11-26T04:41:16.066Z,6.39
2022-11-26T04:42:20.570Z,6.38
2022-11-26T04:43:24.885Z,6.42
2022-11-26T04:44:29.086Z,6.43
2022-11-26T04:45:32.935Z,6.41
2022-11-26T04:46:36.496Z,6.39
2022-11-26T04:47:42.877Z,6.39
2022-11-26T04:48:46.883Z,6.41
2022-11-26T04:49:50.367Z,6.38
2022-11-26T04:50:54.335Z,6.32
2022-11-26T04:51:58.022Z,6.33
2022-11-26T04:53:01.663Z,6.35
2022-11-26T04:54:12.766Z,6.32
2022-11-26T04:55:18.869Z,6.31
2022-11-26T04:56:22.419Z,6.28
2022-11-26T04:57:26.650Z,6.30
2022-11-26T04:58:30.292Z,6.32
2022-11-26T04:59:33.751Z,6.25
2022-11-26T05:00:37.646Z,6.29
2022-11-26T05:01:41.341Z,6.20
2022-11-26T05:02:45.566Z,6.20
2022-11-26T05:03:49.688Z,6.20
2022-11-26T05:04:53.518Z,6.23
2022-11-26T05:05:57.275Z,6.23
2022-11-26T05:07:01.075Z,6.22
2022-11-26T05:08:07.489Z,6.23
2022-11-26T05:09:12.859Z,6.16
2022-11-26T05:10:16.665Z,6.16
2022-11-26T05:11:20.261Z,6.14
2022-11-26T05:12:24.818Z,6.14
2022-11-26T05:13:31.547Z,6.16
2022-11-26T05:14:35.117Z,6.17
2022-11-26T05:15:39.111Z,6.17
2022-11-26T05:16:42.621Z,6.15
2022-11-26T05:17:46.606Z,6.13
2022-11-26T05:18:50.194Z,6.11
2022-11-26T05:19:53.779Z,6.04
2022-11-26T05:20:57.216Z,6.06
2022-11-26T05:22:00.822Z,6.09
2022-11-26T05:23:04.973Z,6.11
2022-11-26T05:24:12.868Z,6.11
2022-11-26T05:25:16.328Z,6.03
2022-11-26T05:26:20.143Z,6.03
2022-11-26T05:27:23.784Z,5.99
2022-11-26T05:28:27.584Z,6.05
2022-11-26T05:29:32.866Z,6.02
2022-11-26T05:30:37.679Z,6.01
2022-11-26T05:31:41.271Z,6.04
2022-11-26T05:32:45.085Z,6.02
2022-11-26T05:33:48.826Z,5.97
2022-11-26T05:34:55.697Z,5.99
2022-11-26T05:36:03.621Z,5.96
2022-11-26T05:37:14.143Z,5.94
2022-11-26T05:38:17.626Z,5.94
2022-11-26T05:39:22.230Z,5.93
2022-11-26T05:40:25.662Z,5.95
2022-11-26T05:41:29.358Z,5.90
2022-11-26T05:42:32.979Z,5.84
2022-11-26T05:43:36.518Z,5.84
2022-11-26T05:44:40.978Z,5.86
2022-11-26T05:45:44.759Z,5.85
2022-11-26T05:46:48.461Z,5.87
2022-11-26T05:47:51.936Z,5.87
2022-11-26T05:48:55.405Z,5.87
2022-11-26T05:49:58.924Z,5.88
2022-11-26T05:51:03.582Z,5.87
2022-11-26T05:52:17.230Z,5.87
2022-11-26T05:53:20.838Z,5.80
2022-11-26T05:54:28.539Z,5.77
2022-11-26T05:55:32.254Z,5.79
2022-11-26T05:56:36.148Z,5.79
2022-11-26T05:57:39.705Z,5.76
2022-11-26T05:58:43.748Z,5.77
2022-11-26T05:59:49.291Z,5.75
2022-11-26T06:00:53.322Z,5.75
2022-11-26T06:01:57.219Z,5.72
2022-11-26T06:03:00.826Z,5.73
2022-11-26T06:04:04.958Z,5.70
2022-11-26T06:05:12.514Z,5.68
2022-11-26T06:06:16.926Z,5.70
2022-11-26T06:07:20.488Z,5.71
2022-11-26T06:08:23.886Z,5.71
2022-11-26T06:09:27.349Z,5.70
2022-11-26T06:10:30.725Z,5.69
2022-11-26T06:11:34.291Z,5.63
2022-11-26T06:12:37.745Z,5.65
2022-11-26T06:13:41.492Z,5.65
2022-11-26T06:14:45.402Z,5.63
2022-11-26T06:15:49.011Z,5.63
2022-11-26T06:16:52.613Z,5.62
2022-11-26T06:17:56.218Z,5.62
2022-11-26T06:19:00.049Z,5.62
2022-11-26T06:20:05.963Z,5.58
2022-11-26T06:21:11.777Z,5.60
2022-11-26T06:22:15.661Z,5.61
2022-11-26T06:23:21.191Z,5.60
2022-11-26T06:24:25.004Z,5.56
2022-11-26T06:25:29.222Z,5.57
2022-11-26T06:26:32.756Z,5.59
2022-11-26T06:27:37.486Z,5.58
2022-11-26T06:28:40.995Z,5.57
2022-11-26T06:29:45.177Z,5.58
2022-11-26T06:30:48.731Z,5.58
2022-11-26T06:31:52.290Z,5.59
2022-11-26T06:32:56.036Z,5.55
2022-11-26T06:34:00.273Z,5.54
2022-11-26T06:35:04.622Z,5.57
2022-11-26T06:36:11.221Z,5.48
2022-11-26T06:37:14.625Z,5.50
2022-11-26T06:38:18.296Z,5.49
2022-11-26T06:39:21.680Z,5.50
2022-11-26T06:40:25.532Z,5.52
2022-11-26T06:41:29.116Z,5.52
2022-11-26T06:42:32.521Z,5.53
2022-11-26T06:43:36.838Z,5.56
2022-11-26T06:44:40.524Z,5.57
2022-11-26T06:45:44.103Z,5.55
2022-11-26T06:46:47.690Z,5.50
2022-11-26T06:47:52.643Z,5.52
2022-11-26T06:49:01.614Z,5.52
2022-11-26T06:50:13.439Z,5.54
2022-11-26T06:51:17.601Z,5.53
2022-11-26T06:52:21.039Z,5.54
2022-11-26T06:53:25.427Z,5.45
2022-11-26T06:54:28.898Z,5.46
2022-11-26T06:55:32.582Z,5.51
2022-11-26T06:56:38.491Z,5.51
2022-11-26T06:57:42.143Z,5.54
2022-11-26T06:58:46.987Z,5.59
2022-11-26T06:59:52.493Z,5.61
2022-11-26T07:00:57.183Z,5.65
2022-11-26T07:02:00.918Z,5.65
2022-11-26T07:03:04.594Z,5.65
2022-11-26T07:04:13.378Z,5.64
2022-11-26T07:05:17.512Z,5.68
2022-11-26T07:06:28.250Z,5.72
2022-11-26T07:07:32.050Z,5.71
2022-11-26T07:08:35.563Z,5.74
2022-11-26T07:09:41.006Z,5.77
2022-11-26T07:10:48.800Z,5.81
2022-11-26T07:11:52.806Z,5.78
2022-11-26T07:12:56.278Z,5.79
2022-11-26T07:14:01.567Z,5.82
2022-11-26T07:15:12.017Z,5.85
2022-11-26T07:16:16.335Z,5.89
2022-11-26T07:17:20.289Z,5.95
2022-11-26T07:18:24.039Z,6.00
2022-11-26T07:19:27.684Z,6.03
2022-11-26T07:20:31.196Z,6.07
2022-11-26T07:21:34.770Z,6.08
2022-11-26T07:22:38.805Z,6.14
2022-11-26T07:23:42.634Z,6.12
2022-11-26T07:24:46.231Z,6.18
2022-11-26T07:25:50.318Z,6.24
2022-11-26T07:26:54.243Z,6.27
2022-11-26T07:27:58.369Z,6.31
2022-11-26T07:29:01.803Z,6.36
2022-11-26T07:30:10.250Z,6.39
2022-11-26T07:31:18.124Z,6.42
2022-11-26T07:32:21.866Z,6.47
2022-11-26T07:33:27.161Z,6.51
2022-11-26T07:34:31.670Z,6.53
2022-11-26T07:35:35.010Z,6.58
2022-11-26T07:36:43.154Z,6.59
2022-11-26T07:37:46.816Z,6.63
2022-11-26T07:38:54.431Z,6.70
2022-11-26T07:39:58.558Z,6.75
2022-11-26T07:41:13.616Z,6.80
2022-11-26T07:42:17.956Z,6.79
2022-11-26T07:43:22.336Z,6.82
2022-11-26T07:44:25.967Z,6.86
2022-11-26T07:45:29.854Z,6.94
2022-11-26T07:46:33.544Z,6.98
2022-11-26T07:47:37.153Z,6.98
2022-11-26T07:48:41.225Z,7.05
2022-11-26T07:49:44.851Z,7.07
2022-11-26T07:50:49.229Z,7.04
2022-11-26T07:51:52.730Z,7.11
2022-11-26T07:52:56.360Z,7.09
2022-11-26T07:54:09.401Z,7.08
2022-11-26T07:55:14.938Z,7.14
2022-11-26T07:56:19.755Z,7.15
2022-11-26T07:57:23.482Z,7.21
2022-11-26T07:58:27.355Z,7.25
2022-11-26T07:59:31.137Z,7.28
2022-11-26T08:00:35.495Z,7.30
2022-11-26T08:01:39.491Z,7.32
2022-11-26T08:02:46.619Z,7.35
2022-11-26T08:03:51.906Z,7.33
2022-11-26T08:04:55.345Z,7.35
2022-11-26T08:05:58.710Z,7.31
2022-11-26T08:07:02.470Z,7.37
2022-11-26T08:08:09.865Z,7.31
2022-11-26T08:09:13.313Z,7.32
2022-11-26T08:10:17.576Z,7.35
2022-11-26T08:11:25.008Z,7.31
2022-11-26T08:12:28.417Z,7.28
2022-11-26T08:13:32.030Z,7.24
2022-11-26T08:14:35.673Z,7.27
2022-11-26T08:15:39.247Z,7.22
2022-11-26T08:16:42.909Z,7.11
2022-11-26T08:17:46.323Z,7.13
2022-11-26T08:18:58.107Z,7.11
2022-11-26T08:20:01.756Z,7.07
2022-11-26T08:21:09.484Z,7.00
2022-11-26T08:22:13.622Z,7.05
2022-11-26T08:23:17.242Z,7.10
2022-11-26T08:24:21.269Z,7.12
2022-11-26T08:25:24.980Z,7.13
2022-11-26T08:26:35.881Z,7.10
2022-11-26T08:27:42.016Z,7.12
2022-11-26T08:28:47.341Z,7.12
2022-11-26T08:29:50.719Z,7.14
2022-11-26T08:31:03.490Z,7.13
2022-11-26T08:32:10.034Z,7.08
2022-11-26T08:33:15.476Z,7.04
2022-11-26T08:34:19.574Z,7.07
2022-11-26T08:35:38.690Z,7.04
2022-11-26T08:36:46.871Z,7.07
2022-11-26T08:37:51.185Z,7.08
2022-11-26T08:38:55.068Z,7.11
2022-11-26T08:39:58.695Z,7.09
2022-11-26T08:41:11.869Z,7.12
2022-11-26T08:42:16.438Z,7.10
2022-11-26T08:43:34.664Z,7.05
2022-11-26T08:44:47.343Z,7.06
2022-11-26T08:45:59.960Z,7.07
2022-11-26T08:47:04.068Z,7.03
2022-11-26T08:48:12.651Z,7.04
2022-11-26T08:49:17.338Z,7.02
2022-11-26T08:50:20.932Z,7.00
2022-11-26T08:51:25.602Z,7.04
2022-11-26T08:52:29.483Z,7.07
2022-11-26T08:53:35.848Z,7.07
2022-11-26T08:54:44.617Z,7.04
2022-11-26T08:56:00.147Z,7.08
2022-11-26T08:57:12.028Z,7.11
2022-11-26T08:58:15.615Z,7.06
2022-11-26T08:59:20.769Z,7.06
2022-11-26T09:00:25.046Z,7.02
2022-11-26T09:01:32.859Z,7.04
2022-11-26T09:02:36.880Z,7.06
2022-11-26T09:03:40.444Z,7.10
2022-11-26T09:04:44.034Z,7.13
2022-11-26T09:05:47.542Z,7.13
2022-11-26T09:06:51.027Z,7.13
2022-11-26T09:07:55.201Z,7.11
2022-11-26T09:09:13.386Z,7.14
2022-11-26T09:10:17.740Z,7.15
2022-11-26T09:11:21.673Z,7.12
2022-11-26T09:12:26.360Z,7.18
2022-11-26T09:13:30.321Z,7.18
2022-11-26T09:14:41.514Z,7.18
2022-11-26T09:15:45.330Z,7.18
2022-11-26T09:16:49.056Z,7.22
2022-11-26T09:17:52.471Z,7.28
2022-11-26T09:19:01.111Z,7.30
2022-11-26T09:20:09.492Z,7.30
2022-11-26T09:21:12.922Z,7.34
2022-11-26T09:22:16.437Z,7.38
2022-11-26T09:23:20.344Z,7.39
2022-11-26T09:24:27.963Z,7.41
2022-11-26T09:25:31.498Z,7.41
2022-11-26T09:26:35.299Z,7.39
2022-11-26T09:27:39.346Z,7.41
2022-11-26T09:28:42.832Z,7.34
2022-11-26T09:29:46.810Z,7.38
2022-11-26T09:30:50.293Z,7.44
2022-11-26T09:32:23.396Z,7.50
2022-11-26T09:33:17.314Z,7.45
2022-11-26T09:34:21.102Z,7.50
2022-11-26T09:35:25.986Z,7.51
2022-11-26T09:36:30.057Z,7.53
2022-11-26T09:37:33.679Z,7.58
2022-11-26T09:38:37.789Z,7.60
2022-11-26T09:39:41.650Z,7.65
2022-11-26T09:41:18.717Z,7.71
2022-11-26T09:42:57.760Z,7.65
2022-11-26T09:44:37.170Z,7.72
2022-11-26T09:45:52.894Z,7.77
2022-11-26T09:47:20.160Z,7.77
2022-11-26T09:48:28.682Z,7.82
2022-11-26T09:49:50.365Z,7.81
2022-11-26T09:51:13.343Z,7.82
2022-11-26T09:52:22.012Z,7.83
2022-11-26T09:53:32.624Z,7.85
2022-11-26T09:54:40.028Z,7.89
2022-11-26T09:55:49.339Z,7.84
2022-11-26T09:57:18.421Z,7.86
2022-11-26T09:58:42.528Z,7.90
2022-11-26T09:59:49.554Z,7.90
2022-11-26T10:00:56.243Z,7.92
2022-11-26T10:02:00.307Z,7.99
2022-11-26T10:03:23.857Z,8.05
2022-11-26T10:04:38.420Z,8.11
2022-11-26T10:06:35.834Z,8.17
2022-11-26T10:08:20.605Z,8.09
2022-11-26T10:09:52.975Z,8.09
2022-11-26T10:11:23.840Z,8.05
2022-11-26T10:13:17.863Z,8.11
2022-11-26T10:15:03.288Z,8.11
2022-11-26T10:16:38.533Z,8.10
2022-11-26T10:18:31.313Z,8.16
2022-11-26T10:19:58.607Z,8.19
2022-11-26T10:21:37.717Z,8.17
2022-11-26T10:22:57.530Z,8.12
2022-11-26T10:24:30.075Z,8.09
2022-11-26T10:25:46.339Z,8.08
2022-11-26T10:26:51.856Z,8.16
2022-11-26T10:27:58.324Z,8.20
2022-11-26T10:29:41.172Z,8.21
2022-11-26T10:30:46.579Z,8.19
2022-11-26T10:32:02.115Z,8.14
2022-11-26T10:33:11.999Z,8.11
2022-11-26T10:34:39.918Z,8.12
2022-11-26T10:35:47.293Z,8.09
2022-11-26T10:36:52.276Z,8.09
2022-11-26T10:37:59.635Z,8.09
2022-11-26T10:39:03.407Z,8.10
2022-11-26T10:40:24.200Z,8.08
2022-11-26T10:41:34.173Z,8.09
2022-11-26T10:42:47.549Z,8.07
2022-11-26T10:43:50.977Z,8.09
2022-11-26T10:44:55.001Z,8.07
2022-11-26T10:45:58.554Z,7.97
2022-11-26T10:47:30.852Z,7.89
2022-11-26T10:48:35.339Z,7.95
2022-11-26T10:49:38.848Z,7.96
2022-11-26T10:50:48.032Z,7.92
2022-11-26T10:51:58.947Z,7.97
2022-11-26T10:53:11.335Z,7.97
2022-11-26T10:54:37.652Z,8.00
2022-11-26T10:55:43.953Z,8.01
2022-11-26T10:56:53.207Z,8.06
2022-11-26T10:58:06.591Z,8.01
2022-11-26T10:59:34.687Z,7.90
2022-11-26T11:00:50.235Z,7.95
2022-11-26T11:02:00.935Z,7.91
2022-11-26T11:03:16.190Z,7.98
2022-11-26T11:04:45.808Z,7.99
2022-11-26T11:05:50.488Z,7.99
2022-11-26T11:06:54.574Z,8.01
2022-11-26T11:08:01.131Z,8.03
2022-11-26T11:09:38.003Z,8.05
2022-11-26T11:11:26.627Z,8.05
2022-11-26T11:12:30.391Z,8.05
2022-11-26T11:13:43.720Z,8.09
2022-11-26T11:14:49.466Z,8.09
2022-11-26T11:16:03.025Z,8.04
2022-11-26T11:17:33.309Z,8.05
2022-11-26T11:18:38.041Z,8.06
2022-11-26T11:19:43.683Z,8.08
2022-11-26T11:20:58.324Z,8.13
2022-11-26T11:22:04.720Z,8.14
2022-11-26T11:23:11.554Z,8.17
2022-11-26T11:24:29.073Z,8.13
2022-11-26T11:25:36.332Z,8.09
2022-11-26T11:26:47.952Z,8.09
2022-11-26T11:27:54.217Z,8.11
2022-11-26T11:28:58.721Z,8.12
2022-11-26T11:30:03.444Z,8.11
2022-11-26T11:31:40.860Z,8.11
2022-11-26T11:32:44.868Z,8.11
2022-11-26T11:33:51.454Z,8.12
2022-11-26T11:34:54.975Z,8.11
2022-11-26T11:36:06.748Z,8.12
2022-11-26T11:37:19.220Z,8.15
2022-11-26T11:38:27.360Z,8.16
2022-11-26T11:39:35.785Z,8.17
2022-11-26T11:40:42.490Z,8.13
2022-11-26T11:41:49.365Z,8.13
2022-11-26T11:43:07.212Z,8.16
2022-11-26T11:44:43.142Z,8.14
2022-11-26T11:46:48.064Z,8.10
2022-11-26T11:47:56.642Z,8.09
2022-11-26T11:49:41.499Z,8.06
2022-11-26T11:51:38.350Z,8.05
2022-11-26T11:53:23.205Z,8.03
2022-11-26T11:54:57.061Z,8.00
2022-11-26T11:56:33.973Z,8.09
2022-11-26T11:58:03.990Z,8.11
2022-11-26T11:59:59.016Z,8.12
2022-11-26T12:01:42.745Z,8.09
2022-11-26T12:03:33.583Z,8.08
2022-11-26T12:05:25.553Z,8.12
2022-11-26T12:06:29.410Z,8.14
2022-11-26T12:07:53.293Z,8.18
2022-11-26T12:09:29.546Z,8.14
2022-11-26T12:10:57.938Z,8.11
2022-11-26T12:12:22.103Z,8.09
2022-11-26T12:13:29.314Z,8.09
2022-11-26T12:14:41.757Z,8.10
2022-11-26T12:16:03.270Z,8.15
2022-11-26T12:17:17.751Z,8.17
2022-11-26T12:18:40.342Z,8.11
2022-11-26T12:19:59.198Z,8.10
2022-11-26T12:21:15.735Z,8.09
2022-11-26T12:22:37.273Z,8.08
2022-11-26T12:23:52.777Z,8.14
2022-11-26T12:25:04.943Z,8.14
2022-11-26T12:26:19.809Z,8.17
2022-11-26T12:27:43.659Z,8.20
2022-11-26T12:29:25.883Z,8.20
2022-11-26T12:30:50.859Z,8.16
2022-11-26T12:32:21.936Z,8.21
2022-11-26T12:34:07.118Z,8.19
2022-11-26T12:35:33.011Z,8.18
2022-11-26T12:36:51.228Z,8.13
2022-11-26T12:38:04.692Z,8.12
2022-11-26T12:39:28.525Z,8.10
2022-11-26T12:40:54.642Z,8.01
2022-11-26T12:42:20.343Z,8.05
2022-11-26T12:43:50.608Z,8.02
2022-11-26T12:45:13.329Z,8.06
2022-11-26T12:46:51.997Z,8.11
2022-11-26T12:48:15.664Z,8.09
2022-11-26T12:49:53.540Z,8.10
2022-11-26T12:51:30.881Z,8.08
2022-11-26T12:52:55.665Z,8.10
2022-11-26T12:54:26.468Z,8.15
2022-11-26T12:56:01.440Z,8.17
2022-11-26T12:57:25.208Z,8.18
2022-11-26T12:59:03.543Z,8.16
2022-11-26T13:00:32.774Z,8.07
2022-11-26T13:01:43.290Z,8.03
2022-11-26T13:02:51.796Z,8.06
2022-11-26T13:04:14.717Z,8.08
2022-11-26T13:05:30.713Z,8.12
2022-11-26T13:06:53.611Z,8.15
2022-11-26T13:08:25.836Z,8.17
2022-11-26T13:09:53.873Z,8.18
2022-11-26T13:11:27.166Z,8.13
2022-11-26T13:12:48.206Z,8.20
2022-11-26T13:14:16.935Z,8.17
2022-11-26T13:15:26.429Z,8.21
2022-11-26T13:16:42.461Z,8.25
2022-11-26T13:17:51.579Z,8.26
2022-11-26T13:19:06.459Z,8.27
2022-11-26T13:20:42.116Z,8.24
2022-11-26T13:22:24.119Z,8.23
2022-11-26T13:23:50.828Z,8.20
2022-11-26T13:25:20.906Z,8.23
2022-11-26T13:27:12.090Z,8.27
2022-11-26T13:29:10.062Z,8.29
2022-11-26T13:30:37.685Z,8.32
2022-11-26T13:31:56.820Z,8.32
2022-11-26T13:33:50.027Z,8.29
2022-11-26T13:35:51.556Z,8.24
2022-11-26T13:37:16.433Z,8.17
2022-11-26T13:39:20.370Z,8.25
2022-11-26T13:40:45.926Z,8.19
2022-11-26T13:42:37.698Z,8.17
2022-11-26T13:44:14.904Z,8.24
2022-11-26T13:45:56.071Z,8.26
2022-11-26T13:47:16.893Z,8.22
2022-11-26T13:48:48.986Z,8.27
2022-11-26T13:50:29.575Z,8.21
2022-11-26T13:51:41.932Z,8.09
2022-11-26T13:53:03.965Z,8.05
2022-11-26T13:54:35.490Z,8.15
2022-11-26T13:56:00.480Z,8.16
2022-11-26T13:57:16.328Z,8.13
2022-11-26T13:58:46.030Z,8.18
2022-11-26T13:59:56.303Z,8.12
2022-11-26T14:01:28.552Z,8.16
2022-11-26T14:02:36.719Z,8.19
2022-11-26T14:03:49.330Z,8.18
2022-11-26T14:04:59.578Z,8.14
2022-11-26T14:06:09.568Z,8.09
2022-11-26T14:07:20.551Z,8.14
2022-11-26T14:08:44.981Z,8.13
2022-11-26T14:09:53.415Z,8.13
2022-11-26T14:10:57.091Z,8.17
2022-11-26T14:12:00.608Z,8.21
2022-11-26T14:13:03.975Z,8.26
2022-11-26T14:14:26.814Z,8.24
2022-11-26T14:15:43.088Z,8.28
2022-11-26T14:17:02.691Z,8.26
2022-11-26T14:18:12.907Z,8.25
2022-11-26T14:19:16.884Z,8.26
2022-11-26T14:20:23.924Z,8.24
2022-11-26T14:21:30.686Z,8.24
2022-11-26T14:22:37.851Z,8.23
2022-11-26T14:23:44.425Z,8.20
2022-11-26T14:24:50.796Z,8.15
2022-11-26T14:25:54.415Z,8.13
2022-11-26T14:26:58.197Z,8.14
2022-11-26T14:28:04.293Z,8.16
2022-11-26T14:29:17.414Z,8.20
2022-11-26T14:30:25.805Z,8.22
2022-11-26T14:31:32.995Z,8.19
2022-11-26T14:32:51.600Z,8.21
2022-11-26T14:34:03.531Z,8.21
2022-11-26T14:35:34.373Z,8.18
2022-11-26T14:36:54.187Z,8.21
2022-11-26T14:37:59.852Z,8.23
2022-11-26T14:39:11.200Z,8.27
2022-11-26T14:40:27.192Z,8.26
2022-11-26T14:41:51.234Z,8.20
2022-11-26T14:43:16.386Z,8.24
2022-11-26T14:44:21.636Z,8.26
2022-11-26T14:45:28.101Z,8.27
2022-11-26T14:46:32.466Z,8.29
2022-11-26T14:47:36.874Z,8.26
2022-11-26T14:48:48.056Z,8.19
2022-11-26T14:50:12.785Z,8.17
2022-11-26T14:51:27.517Z,8.23
2022-11-26T14:52:37.364Z,8.23
2022-11-26T14:53:48.833Z,8.26
2022-11-26T14:54:57.868Z,8.19
2022-11-26T14:56:03.341Z,8.20
2022-11-26T14:57:24.580Z,8.22
2022-11-26T14:58:36.846Z,8.24
2022-11-26T15:00:05.067Z,8.15
2022-11-26T15:01:16.017Z,8.20
2022-11-26T15:02:26.294Z,8.23
2022-11-26T15:03:29.915Z,8.24
2022-11-26T15:04:34.989Z,8.25
2022-11-26T15:05:45.332Z,8.27
2022-11-26T15:06:49.328Z,8.27
2022-11-26T15:08:25.443Z,8.19
2022-11-26T15:09:29.299Z,8.20
2022-11-26T15:11:17.361Z,8.20
2022-11-26T15:12:24.977Z,8.18
2022-11-26T15:13:38.116Z,8.20
2022-11-26T15:14:55.098Z,8.22
2022-11-26T15:16:02.912Z,8.20
2022-11-26T15:17:14.481Z,8.23
2022-11-26T15:18:24.249Z,8.25
2022-11-26T15:19:37.186Z,8.27
2022-11-26T15:20:42.750Z,8.25
2022-11-26T15:21:47.609Z,8.28
2022-11-26T15:23:07.639Z,8.31
2022-11-26T15:24:17.147Z,8.30
2022-11-26T15:25:33.214Z,8.31
2022-11-26T15:26:38.372Z,8.32
2022-11-26T15:28:10.881Z,8.20
2022-11-26T15:29:34.966Z,8.18
2022-11-26T15:30:39.293Z,8.15
2022-11-26T15:31:43.543Z,8.15
2022-11-26T15:32:47.257Z,8.19
2022-11-26T15:33:52.191Z,8.18
2022-11-26T15:35:01.178Z,8.24
2022-11-26T15:36:17.218Z,8.21
2022-11-26T15:37:21.225Z,8.19
2022-11-26T15:39:01.318Z,8.17
2022-11-26T15:40:21.718Z,8.20
2022-11-26T15:41:26.568Z,8.26
2022-11-26T15:42:35.812Z,8.30
2022-11-26T15:43:52.059Z,8.20
2022-11-26T15:44:57.498Z,8.25
2022-11-26T15:46:12.373Z,8.29
2022-11-26T15:47:25.371Z,8.27
2022-11-26T15:48:54.917Z,8.22
2022-11-26T15:50:01.411Z,8.15